Time;durP1;ratioP1;P1;durP2;ratioP2;P2;SDS_P1;SDS_P2;PMS_P1;PMS_P2;Temp;Humidity;BMP_temperature;BMP_pressure;BME280_temperature;BME280_humidity;BME280_pressure;Samples;Min_cycle;Max_cycle;Signal;HPM_P1;HPM_P2
2023/01/11 00:01:22;;;;;;;12.25;2.15;;;;;;;-9.24;89.44;102784.63;10497824;28;20428;-72
2023/01/11 00:06:23;;;;;;;13.48;2.58;;;;;;;-9.32;89.72;102764.78;10497876;28;20090;-72
2023/01/11 00:11:24;;;;;;;12.57;2.38;;;;;;;-9.38;89.81;102759.56;10497633;28;20135;-72
2023/01/11 00:16:25;;;;;;;12.75;2.60;;;;;;;-9.58;89.90;102708.72;10496778;28;20048;-72
2023/01/11 00:21:26;;;;;;;20.40;2.20;;;;;;;-9.40;89.29;102733.81;10496506;28;20040;-72
2023/01/11 00:26:26;;;;;;;10.10;2.55;;;;;;;-9.68;89.33;102705.19;10497127;28;20044;-73
2023/01/11 00:31:27;;;;;;;14.73;2.78;;;;;;;-9.39;90.08;102748.44;10498128;28;20496;-74
2023/01/11 00:36:28;;;;;;;14.30;2.65;;;;;;;-9.62;89.14;102690.69;10538197;28;20098;-73
2023/01/11 00:52:08;;;;;;;10.23;2.63;;;;;;;-9.19;89.28;102739.19;10537449;28;20040;-73
2023/01/11 00:57:09;;;;;;;5.32;1.48;;;;;;;-9.30;89.10;102709.91;10538008;28;20040;-73
2023/01/11 01:02:10;;;;;;;16.27;2.45;;;;;;;-9.26;89.69;102724.53;10536971;28;20028;-73
2023/01/11 01:07:11;;;;;;;15.82;2.53;;;;;;;-9.27;89.68;102717.66;10537809;28;20044;-73
2023/01/11 01:14:24;;;;;;;13.07;2.35;;;;;;;-9.33;89.56;102707.31;10538061;28;20044;-73
2023/01/11 01:17:32;;;;;;;13.18;2.58;;;;;;;-9.52;90.00;102666.75;10537852;28;20105;-73
2023/01/11 01:22:33;;;;;;;7.47;2.28;;;;;;;-8.96;89.38;102756.59;10537501;28;20487;-73
2023/01/11 01:27:34;;;;;;;12.32;2.90;;;;;;;-9.10;89.38;102732.41;10537142;28;20483;-74
2023/01/11 01:32:35;;;;;;;11.55;2.40;;;;;;;-9.03;89.08;102721.34;10536177;28;20058;-73
2023/01/11 01:37:35;;;;;;;6.63;2.20;;;;;;;-9.56;89.43;102636.72;10535440;28;20089;-73
2023/01/11 01:42:36;;;;;;;10.55;1.88;;;;;;;-9.67;88.89;102591.13;10534243;28;20032;-73
2023/01/11 01:47:52;;;;;;;6.78;1.95;;;;;;;-9.34;89.08;102641.22;10505702;28;20048;-73
2023/01/11 01:52:59;;;;;;;6.68;1.73;;;;;;;-9.42;89.55;102624.84;10501729;28;20040;-73
2023/01/11 01:58:03;;;;;;;6.88;1.88;;;;;;;-8.82;89.59;102723.25;10536663;28;20102;-73
2023/01/11 02:03:05;;;;;;;5.75;1.50;;;;;;;-9.49;90.23;102607.63;10536819;28;20044;-74
2023/01/11 02:08:16;;;;;;;17.45;3.20;;;;;;;-8.65;89.27;102741.41;10537383;28;20051;-73
2023/01/11 02:13:16;;;;;;;13.38;2.25;;;;;;;-9.10;89.52;102660.31;10540469;28;20043;-72
2023/01/11 02:18:18;;;;;;;7.60;1.75;;;;;;;-8.81;89.72;102701.78;10542708;28;20079;-73
2023/01/11 02:23:31;;;;;;;7.70;1.20;;;;;;;-9.04;89.41;102639.78;10543296;28;20052;-73
2023/01/11 02:28:40;;;;;;;6.82;1.50;;;;;;;-8.48;89.97;102739.00;10543168;28;20047;-74
2023/01/11 02:33:50;;;;;;;15.60;2.95;;;;;;;-8.45;89.71;102747.59;10542981;28;20048;-73
2023/01/11 02:39:09;;;;;;;6.47;2.05;;;;;;;-8.43;89.83;102738.19;10543021;28;20381;-74
2023/01/11 02:49:49;;;;;;;9.85;1.65;;;;;;;-8.42;90.33;102754.50;10495154;28;20458;-73
2023/01/11 02:54:56;;;;;;;7.65;1.88;;;;;;;-8.43;89.91;102742.47;10511413;28;20094;-73
2023/01/11 02:59:59;;;;;;;10.30;2.17;;;;;;;-8.90;89.82;102653.63;10542996;28;20032;-74
2023/01/11 03:04:59;;;;;;;10.98;1.98;;;;;;;-8.46;89.79;102730.44;10517555;28;20037;-71
2023/01/11 03:10:18;;;;;;;10.80;2.25;;;;;;;-8.21;90.05;102757.22;10525962;28;20044;-72
2023/01/11 03:15:31;;;;;;;10.95;2.28;;;;;;;-8.25;90.47;102752.88;10499751;28;20052;-71
2023/01/11 03:20:40;;;;;;;12.88;2.47;;;;;;;-8.37;90.42;102742.50;10507378;28;20442;-72
2023/01/11 03:26:02;;;;;;;7.43;2.10;;;;;;;-8.50;90.63;102713.19;10524688;28;20067;-72
2023/01/11 03:31:22;;;;;;;15.05;2.20;;;;;;;-8.33;90.46;102747.66;10492668;28;20083;-72
2023/01/11 03:36:31;;;;;;;10.27;2.55;;;;;;;-8.17;90.75;102755.50;10492194;28;20091;-73
2023/01/11 03:41:36;;;;;;;9.48;1.80;;;;;;;-8.23;90.50;102743.44;10493018;28;20044;-72
2023/01/11 03:46:44;;;;;;;11.35;2.30;;;;;;;-8.31;90.36;102719.34;10492832;28;20032;-73
2023/01/11 03:51:47;;;;;;;11.38;2.45;;;;;;;-8.45;90.97;102698.63;10491632;28;20094;-72
2023/01/11 03:56:55;;;;;;;9.75;2.40;;;;;;;-8.38;90.63;102690.03;10493449;28;20496;-72
2023/01/11 04:01:57;;;;;;;18.80;3.10;;;;;;;-8.23;91.01;102727.97;10494655;28;20207;-74
2023/01/11 04:06:57;;;;;;;16.10;2.45;;;;;;;-8.12;91.15;102749.53;10506980;28;20051;-72
2023/01/11 04:11:58;;;;;;;12.57;2.30;;;;;;;-8.06;91.07;102746.13;10510428;28;20060;-72
2023/01/11 04:16:59;;;;;;;18.58;2.90;;;;;;;-8.08;90.29;102747.81;10561047;28;20048;-74
2023/01/11 04:22:00;;;;;;;10.27;2.20;;;;;;;-8.03;90.76;102746.16;10511524;28;20040;-74
2023/01/11 04:27:02;;;;;;;12.73;2.35;;;;;;;-8.10;90.94;102706.56;10538350;28;20139;-73
2023/01/11 04:32:03;;;;;;;11.38;2.30;;;;;;;-8.17;91.44;102714.25;10538141;28;20493;-74
2023/01/11 04:37:04;;;;;;;12.02;3.20;;;;;;;-7.83;91.22;102775.50;10519363;28;20044;-72
2023/01/11 04:42:20;;;;;;;11.68;1.88;;;;;;;-8.22;90.89;102697.91;10538750;28;20048;-73
2023/01/11 04:47:22;;;;;;;5.28;2.00;;;;;;;-8.57;91.76;102640.13;10540683;28;20089;-75
2023/01/11 04:52:23;;;;;;;15.70;3.00;;;;;;;-7.75;91.39;102777.25;10567748;28;20078;-74
2023/01/11 04:57:24;;;;;;;8.57;2.03;;;;;;;-8.56;91.24;102641.84;10548751;28;20119;-74
2023/01/11 05:02:25;;;;;;;11.55;2.08;;;;;;;-7.74;91.86;102773.84;10566221;28;20044;-75
2023/01/11 05:07:25;;;;;;;4.47;1.77;;;;;;;-7.92;91.47;102718.72;10576560;28;20028;-76
2023/01/11 05:12:26;;;;;;;12.80;2.90;;;;;;;-7.60;91.66;102782.50;10579543;28;20036;-75
2023/01/11 05:17:27;;;;;;;4.25;1.65;;;;;;;-8.32;91.68;102651.41;10579208;28;20056;-75
2023/01/11 05:22:28;;;;;;;9.27;2.63;;;;;;;-7.83;92.06;102718.75;10579099;28;20105;-75
2023/01/11 05:27:28;;;;;;;12.98;2.55;;;;;;;-8.27;92.31;102644.56;10579515;28;20139;-75
2023/01/11 05:32:29;;;;;;;8.88;3.08;;;;;;;-7.58;92.19;102740.34;10580358;28;20093;-74
2023/01/11 05:37:30;;;;;;;15.75;2.67;;;;;;;-8.34;91.84;102605.88;10561617;28;20046;-75
2023/01/11 05:42:31;;;;;;;19.58;2.67;;;;;;;-8.13;92.05;102634.34;10579745;28;20070;-75
2023/01/11 05:47:31;;;;;;;15.95;1.90;;;;;;;-7.58;91.47;102695.63;10581537;28;20100;-75
2023/01/11 05:52:32;;;;;;;6.18;1.80;;;;;;;-6.99;91.49;102767.25;10587259;28;20039;-76
2023/01/11 05:57:33;;;;;;;25.35;2.38;;;;;;;-7.83;91.09;102600.06;10586917;28;20039;-75
2023/01/11 06:02:34;;;;;;;14.57;1.95;;;;;;;-7.32;91.92;102663.88;10586436;28;20039;-75
2023/01/11 06:07:35;;;;;;;5.10;1.38;;;;;;;-6.80;91.71;102725.94;10586261;28;20036;-74
2023/01/11 06:12:35;;;;;;;7.35;1.77;;;;;;;-6.30;91.50;102774.22;10586139;28;20043;-75
2023/01/11 06:17:36;;;;;;;5.70;1.90;;;;;;;-6.24;91.07;102763.84;10587240;28;20495;-75
2023/01/11 06:22:36;;;;;;;8.65;2.15;;;;;;;-6.50;90.88;102694.91;10586300;28;20035;-74
2023/01/11 06:27:37;;;;;;;6.68;1.15;;;;;;;-5.92;90.71;102744.78;10585995;28;20496;-74
2023/01/11 06:32:38;;;;;;;8.25;1.70;;;;;;;-5.81;90.69;102758.56;10585825;28;20032;-74
2023/01/11 06:37:38;;;;;;;9.40;1.60;;;;;;;-5.84;90.95;102748.22;10586633;28;20045;-74
2023/01/11 06:42:39;;;;;;;9.57;1.92;;;;;;;-6.25;90.69;102644.00;10585359;28;20044;-74
2023/01/11 06:47:40;;;;;;;14.98;2.22;;;;;;;-5.56;90.57;102736.91;10585097;28;20043;-74
2023/01/11 06:52:41;;;;;;;5.47;1.48;;;;;;;-6.25;90.03;102617.25;10584344;28;20040;-75
2023/01/11 06:57:41;;;;;;;8.25;1.80;;;;;;;-5.93;90.09;102626.63;10584931;28;20509;-75
2023/01/11 07:02:43;;;;;;;11.18;2.20;;;;;;;-5.51;89.85;102685.94;10584578;28;20069;-75
2023/01/11 07:07:44;;;;;;;8.25;1.40;;;;;;;-5.47;89.74;102696.28;10583800;28;20040;-75
2023/01/11 07:12:45;;;;;;;9.48;2.05;;;;;;;-5.77;89.30;102621.34;10583691;28;20059;-75
2023/01/11 07:17:48;;;;;;;3.63;1.38;;;;;;;-5.47;89.06;102641.88;10584678;28;20061;-76
2023/01/11 07:22:49;;;;;;;11.93;2.15;;;;;;;-4.86;89.02;102724.44;10583575;28;20043;-75
2023/01/11 07:27:55;;;;;;;11.60;2.05;;;;;;;-4.87;89.33;102717.53;10582922;28;20173;-76
2023/01/11 07:32:57;;;;;;;8.10;1.88;;;;;;;-4.79;89.68;102717.47;10583968;28;20069;-74
2023/01/11 07:37:58;;;;;;;12.23;2.03;;;;;;;-5.07;89.87;102635.56;10564375;28;20047;-74
2023/01/11 07:43:13;;;;;;;14.98;2.65;;;;;;;-5.09;90.27;102611.41;10583321;28;20100;-75
2023/01/11 07:48:19;;;;;;;8.32;2.22;;;;;;;-4.41;90.74;102678.25;10582393;28;20086;-75
2023/01/11 07:53:21;;;;;;;13.38;2.53;;;;;;;-4.22;90.31;102666.81;10583094;28;20047;-74
2023/01/11 07:58:22;;;;;;;10.02;2.80;;;;;;;-4.08;90.84;102651.06;10582326;28;20396;-74
2023/01/11 08:03:22;;;;;;;18.30;2.22;;;;;;;-4.08;90.95;102632.91;10582267;28;20051;-75
2023/01/11 08:08:23;;;;;;;21.83;2.45;;;;;;;-4.19;90.32;102601.00;10580765;28;20039;-75
2023/01/11 08:18:43;;;;;;;23.08;2.58;;;;;;;-3.58;88.72;102594.16;10581401;28;20093;-75
2023/01/11 08:23:44;;;;;;;16.55;2.58;;;;;;;-3.15;87.89;102629.91;10581296;28;20499;-74
2023/01/11 08:28:45;;;;;;;20.25;2.33;;;;;;;-3.64;86.50;102516.34;10580869;28;20043;-74
2023/01/11 08:33:47;;;;;;;13.45;1.98;;;;;;;-3.08;85.94;102571.72;10580518;28;20039;-74
2023/01/11 08:38:48;;;;;;;17.20;3.00;;;;;;;-2.80;84.69;102598.97;10581135;28;20040;-75
2023/01/11 08:43:50;;;;;;;19.13;2.85;;;;;;;-2.50;84.45;102622.72;10580189;28;20499;-74
2023/01/11 08:48:52;;;;;;;13.63;2.78;;;;;;;-2.77;83.26;102549.50;10580344;28;20395;-75
2023/01/11 08:53:53;;;;;;;24.88;3.35;;;;;;;-3.81;81.96;102355.56;10580834;28;20449;-75
2023/01/11 08:58:54;;;;;;;25.65;3.13;;;;;;;-2.91;82.46;102489.06;10562170;28;20088;-75
2023/01/11 09:03:55;;;;;;;20.73;3.25;;;;;;;-2.52;80.49;102510.84;10579889;28;20502;-75
2023/01/11 09:08:55;;;;;;;23.60;2.45;;;;;;;-2.21;80.27;102557.09;10561502;28;20039;-74
2023/01/11 09:13:56;;;;;;;29.75;2.20;;;;;;;-2.04;81.10;102556.72;10561455;28;20495;-74
2023/01/11 09:18:57;;;;;;;40.47;3.83;;;;;;;-1.66;80.14;102594.97;10561558;28;20047;-75
2023/01/11 09:23:57;;;;;;;27.58;3.13;;;;;;;-1.68;79.93;102565.47;10592358;28;20076;-75
2023/01/11 09:28:58;;;;;;;20.08;2.10;;;;;;;-1.66;78.15;102526.34;10593582;28;20051;-75
2023/01/11 09:33:59;;;;;;;22.70;2.78;;;;;;;-2.46;78.29;102386.69;10593679;28;20403;-74
2023/01/11 09:39:03;;;;;;;24.83;2.53;;;;;;;-1.88;78.26;102468.69;10592780;28;20463;-75
2023/01/11 09:44:22;;;;;;;22.60;2.25;;;;;;;-1.27;77.03;102566.25;10593490;28;20544;-77
2023/01/11 09:49:30;;;;;;;27.73;2.95;;;;;;;-1.24;77.20;102549.69;10592615;28;20040;-76
2023/01/11 09:54:31;;;;;;;27.35;3.05;;;;;;;-1.89;77.28;102420.91;10594133;28;20046;-76
2023/01/11 09:59:47;;;;;;;24.13;2.28;;;;;;;-1.29;76.54;102496.78;10593019;28;20125;-75
2023/01/11 10:05:22;;;;;;;19.17;2.00;;;;;;;-0.87;76.65;102539.16;10592353;28;20044;-76
2023/01/11 10:10:35;;;;;;;19.65;2.45;;;;;;;-1.07;76.53;102489.28;10592690;28;20120;-76
2023/01/11 10:15:45;;;;;;;25.38;3.08;;;;;;;-1.13;76.75;102471.19;10593121;28;20519;-76
2023/01/11 10:20:51;;;;;;;28.75;2.88;;;;;;;-1.96;76.27;102367.28;10592248;28;20096;-75
2023/01/11 10:25:57;;;;;;;30.13;4.15;;;;;;;-1.13;76.54;102521.59;10591963;28;20415;-75
2023/01/11 10:42:01;;;;;;;31.52;3.15;;;;;;;-1.07;76.93;102511.00;10585395;28;20038;-75
2023/01/11 10:47:04;;;;;;;17.33;2.92;;;;;;;-1.61;76.41;102431.53;10566644;28;20031;-75
2023/01/11 10:52:32;;;;;;;23.02;2.58;;;;;;;-1.35;76.00;102478.69;10584403;28;20047;-76
2023/01/11 10:57:51;;;;;;;22.90;2.60;;;;;;;-1.22;75.75;102498.34;10584604;28;20040;-76
2023/01/11 11:03:10;;;;;;;45.10;3.65;;;;;;;-1.13;76.33;102513.75;10584421;28;20043;-74
2023/01/11 11:08:47;;;;;;;35.53;4.80;;;;;;;-1.11;76.33;102524.13;10584926;28;20384;-74
2023/01/11 11:14:01;;;;;;;36.83;4.15;;;;;;;-1.17;76.43;102519.94;10483870;28;20044;-75
2023/01/11 11:19:02;;;;;;;;;;;;;;;-1.16;76.31;102516.44;10584386;28;20058;-74
2023/01/11 11:24:16;;;;;;;32.30;3.38;;;;;;;-1.29;76.40;102499.38;10565022;28;20299;-76
2023/01/11 11:29:28;;;;;;;49.33;5.38;;;;;;;-1.42;77.17;102497.09;10584063;28;20046;-76
2023/01/11 11:34:29;;;;;;;54.70;5.25;;;;;;;-2.04;77.07;102389.19;10584261;28;20130;-74
2023/01/11 11:39:31;;;;;;;51.35;5.13;;;;;;;-1.62;77.03;102476.72;10564913;28;20518;-75
2023/01/11 11:44:34;;;;;;;32.30;3.95;;;;;;;-1.32;77.45;102509.91;10581212;28;20097;-75
2023/01/11 11:49:35;;;;;;;24.95;3.42;;;;;;;-1.54;76.70;102504.38;10582780;28;20036;-75
2023/01/11 11:54:39;;;;;;;29.30;4.10;;;;;;;-1.67;77.36;102491.63;10581983;28;20555;-76
2023/01/11 11:59:44;;;;;;;;;;;;;;;-1.42;77.12;102535.34;10583837;28;20067;-75
2023/01/11 12:04:47;;;;;;;20.98;3.25;;;;;;;-1.87;77.27;102484.28;10581548;28;19919;-74
2023/01/11 12:10:12;;;;;;;36.13;3.17;;;;;;;-1.40;77.24;102550.06;10560029;28;20042;-76
2023/01/11 12:15:18;;;;;;;32.20;3.10;;;;;;;-1.75;77.81;102497.91;10558374;28;20048;-75
2023/01/11 12:20:22;;;;;;;37.08;3.88;;;;;;;-1.42;77.60;102569.22;10562975;28;20064;-74
2023/01/11 12:25:27;;;;;;;38.53;4.23;;;;;;;-2.01;77.23;102462.88;10547389;28;20177;-75
2023/01/11 12:31:04;;;;;;;32.05;4.47;;;;;;;-1.49;76.84;102560.72;10539237;28;20051;-73
2023/01/11 12:36:35;;;;;;;24.65;3.65;;;;;;;-1.45;78.15;102554.53;10547017;28;20521;-73
2023/01/11 12:46:54;;;;;;;20.88;2.47;;;;;;;-1.62;78.03;102560.13;10684023;22;20436;-73
2023/01/11 12:52:15;;;;;;;27.17;2.85;;;;;;;-1.57;78.13;102559.16;10437392;28;20128;-73
2023/01/11 12:58:06;;;;;;;35.50;3.40;;;;;;;-2.21;78.38;102449.50;10454134;28;20091;-73
2023/01/11 13:03:44;;;;;;;20.85;3.53;;;;;;;-1.56;78.81;102551.28;10452831;28;20048;-73
2023/01/11 13:08:57;;;;;;;34.90;4.30;;;;;;;-1.63;77.84;102554.94;10440239;28;20044;-73
2023/01/11 13:14:02;;;;;;;38.15;4.28;;;;;;;-2.23;78.02;102459.06;10414002;28;20041;-73
2023/01/11 13:19:11;;;;;;;34.05;4.40;;;;;;;-1.84;77.73;102538.91;10427584;28;20060;-73
2023/01/11 13:24:25;;;;;;;22.42;3.40;;;;;;;-2.25;77.87;102459.09;10454139;28;20527;-73
2023/01/11 13:29:42;;;;;;;18.57;2.40;;;;;;;-1.62;77.46;102559.25;10453706;28;20488;-73
2023/01/11 13:34:46;;;;;;;12.65;2.38;;;;;;;-1.61;77.56;102553.19;10452766;28;20037;-73
2023/01/11 13:40:00;;;;;;;19.23;2.28;;;;;;;-1.59;76.52;102555.72;10451509;28;20055;-73
2023/01/11 13:45:38;;;;;;;13.70;2.63;;;;;;;-1.62;76.53;102556.66;10430996;28;20060;-72
2023/01/11 13:50:46;;;;;;;6.97;1.65;;;;;;;-1.80;76.70;102518.00;10422754;28;20057;-72
2023/01/11 13:55:58;;;;;;;16.17;2.40;;;;;;;-1.83;76.86;102531.94;10400236;28;20042;-72
2023/01/11 14:01:01;;;;;;;17.27;1.92;;;;;;;-2.30;75.73;102459.22;10406250;28;20045;-74
2023/01/11 14:06:31;;;;;;;23.38;2.35;;;;;;;-2.32;76.52;102466.19;10404954;28;20484;-73
2023/01/11 14:11:40;;;;;;;15.43;2.17;;;;;;;-2.23;76.66;102485.09;10394644;28;20523;-73
2023/01/11 14:17:11;;;;;;;14.10;2.47;;;;;;;-1.78;77.08;102563.97;10422912;28;20037;-75
2023/01/11 14:22:23;;;;;;;17.20;2.20;;;;;;;-1.83;77.76;102568.41;10424163;28;20416;-76
2023/01/11 14:27:30;;;;;;;7.30;1.70;;;;;;;-1.79;77.53;102569.22;10406403;28;20060;-73
2023/01/11 14:33:10;;;;;;;14.85;2.13;;;;;;;-1.89;77.46;102564.19;10416689;28;20045;-74
2023/01/11 14:38:36;;;;;;;15.57;2.65;;;;;;;-2.33;77.53;102498.31;10393784;28;20071;-75
2023/01/11 14:44:06;;;;;;;19.58;2.55;;;;;;;-2.20;78.08;102537.13;10438042;28;20131;-75
2023/01/11 14:49:34;;;;;;;28.42;2.60;;;;;;;-1.90;77.83;102580.72;10425825;28;20424;-72
2023/01/11 14:54:40;;;;;;;14.88;2.72;;;;;;;-2.57;78.49;102478.03;10448637;28;20039;-72
2023/01/11 14:59:41;;;;;;;13.80;2.20;;;;;;;-2.49;78.41;102486.50;10458971;28;20385;-72
2023/01/11 15:04:51;;;;;;;16.13;2.65;;;;;;;-2.39;79.00;102480.22;10459357;28;20037;-73
2023/01/11 15:09:52;;;;;;;28.88;3.10;;;;;;;-2.17;78.32;102524.88;10458668;28;20049;-73
2023/01/11 15:15:12;;;;;;;22.73;3.35;;;;;;;-1.97;78.26;102566.13;10459827;28;20045;-72
2023/01/11 15:20:20;;;;;;;18.63;2.92;;;;;;;-2.17;78.23;102530.09;10458693;28;20048;-75
2023/01/11 15:25:25;;;;;;;18.02;2.78;;;;;;;-2.09;79.09;102549.03;10459328;28;20049;-73
2023/01/11 15:30:29;;;;;;;24.80;2.95;;;;;;;-1.99;79.05;102549.66;10458409;28;20495;-73
2023/01/11 15:35:32;;;;;;;30.27;3.35;;;;;;;-2.41;78.92;102495.00;10439985;28;20623;-71
2023/01/11 15:40:38;;;;;;;15.40;2.28;;;;;;;-2.00;79.50;102561.00;10456199;28;20603;-70
2023/01/11 15:51:43;;;;;;;20.55;3.05;;;;;;;-2.00;79.64;102561.00;10453407;28;20144;-72
2023/01/11 15:56:55;;;;;;;10.02;1.95;;;;;;;-1.99;80.00;102562.69;10456165;28;20054;-71
2023/01/11 16:02:14;;;;;;;18.10;2.78;;;;;;;-1.97;79.82;102550.50;10445690;28;20049;-72
2023/01/11 16:12:23;;;;;;;22.05;2.83;;;;;;;-1.95;79.20;102551.31;10471859;27;20400;-71
2023/01/11 16:17:25;;;;;;;13.40;2.22;;;;;;;-1.94;79.71;102541.78;10494999;27;20148;-72
2023/01/11 16:22:27;;;;;;;10.82;1.77;;;;;;;-1.91;78.99;102531.28;10474818;28;20127;-70
2023/01/11 16:27:31;;;;;;;13.70;1.70;;;;;;;-2.81;78.97;102386.56;10473339;28;20743;-74
2023/01/11 16:32:32;;;;;;;10.60;1.95;;;;;;;-2.05;78.49;102492.50;10465828;28;20077;-71
2023/01/11 16:37:41;;;;;;;10.65;2.00;;;;;;;-2.37;78.85;102435.94;10470873;28;20102;-72
2023/01/11 16:42:56;;;;;;;17.90;1.52;;;;;;;-1.92;78.46;102506.97;10478745;28;20041;-73
2023/01/11 16:48:12;;;;;;;17.08;2.22;;;;;;;-1.96;78.17;102502.72;10469356;28;20122;-72
2023/01/11 16:53:14;;;;;;;10.88;1.80;;;;;;;-2.25;78.82;102453.88;10480819;28;20072;-74
2023/01/11 16:58:36;;;;;;;15.82;2.17;;;;;;;-1.95;78.77;102499.22;10481187;28;20048;-72
2023/01/11 17:03:46;;;;;;;11.27;1.80;;;;;;;-2.16;78.73;102450.22;10463888;28;20127;-74
2023/01/11 17:08:49;;;;;;;18.17;2.45;;;;;;;-2.08;78.31;102463.94;10463523;28;20052;-72
2023/01/11 17:13:53;;;;;;;10.65;2.05;;;;;;;-1.94;78.51;102480.09;10461686;28;20062;-72
2023/01/11 17:18:54;;;;;;;6.67;1.53;;;;;;;-2.31;78.18;102420.19;10459464;28;20051;-72
2023/01/11 17:23:59;;;;;;;17.35;1.98;;;;;;;-2.71;77.64;102350.81;10438606;28;20797;-73
2023/01/11 17:29:00;;;;;;;24.63;1.77;;;;;;;-2.49;78.04;102384.16;10446877;28;20087;-73
2023/01/11 17:34:07;;;;;;;16.52;2.40;;;;;;;-2.19;77.48;102440.72;10448010;28;20045;-72
2023/01/11 17:39:20;;;;;;;5.55;2.10;;;;;;;-2.23;77.71;102420.00;10457563;28;20037;-74
2023/01/11 17:49:42;;;;;;;12.38;1.95;;;;;;;-2.55;77.50;102374.72;10455222;28;20036;-73
2023/01/11 17:54:43;;;;;;;14.35;2.15;;;;;;;-2.22;77.37;102432.97;10452736;28;20051;-73
2023/01/11 17:59:43;;;;;;;29.05;2.70;;;;;;;-2.15;77.97;102446.75;10454508;28;20135;-74
2023/01/11 18:04:45;;;;;;;12.50;1.85;;;;;;;-3.07;77.47;102308.25;10456798;28;20087;-73
2023/01/11 18:09:49;;;;;;;12.48;1.75;;;;;;;-2.27;78.20;102432.25;10458377;28;20060;-73
2023/01/11 18:14:53;;;;;;;21.03;2.73;;;;;;;-2.33;78.27;102422.84;10459001;28;20044;-72
2023/01/11 18:19:54;;;;;;;17.83;3.97;;;;;;;-2.74;78.26;102335.25;10456812;28;20091;-72
2023/01/11 18:24:56;;;;;;;14.65;1.75;;;;;;;-2.26;78.01;102392.31;10457702;28;20113;-73
2023/01/11 18:30:05;;;;;;;8.10;1.77;;;;;;;-2.16;77.80;102377.31;10456573;28;20095;-72
2023/01/11 18:35:13;;;;;;;16.70;2.17;;;;;;;-2.52;77.73;102331.28;10456308;28;20044;-72
2023/01/11 18:40:16;;;;;;;9.10;1.70;;;;;;;-2.18;77.83;102379.97;10457544;28;20507;-73
2023/01/11 18:45:17;;;;;;;19.80;1.85;;;;;;;-2.16;77.49;102359.09;10456906;28;20116;-72
2023/01/11 18:50:18;;;;;;;22.02;2.17;;;;;;;-2.05;77.24;102377.91;10456278;28;20085;-72
2023/01/11 18:55:19;;;;;;;23.63;2.58;;;;;;;-2.16;77.34;102349.53;10455444;28;20045;-72
2023/01/11 19:00:19;;;;;;;16.85;2.33;;;;;;;-2.05;77.32;102345.81;10455175;28;20041;-72
2023/01/11 19:05:20;;;;;;;13.85;2.30;;;;;;;-1.99;77.29;102345.66;10456754;28;20048;-72
2023/01/11 19:10:22;;;;;;;20.45;3.20;;;;;;;-2.35;77.81;102273.63;10456466;28;20069;-73
2023/01/11 19:15:23;;;;;;;21.13;2.22;;;;;;;-1.85;77.61;102354.00;10455757;28;20128;-72
2023/01/11 19:20:24;;;;;;;15.95;1.90;;;;;;;-1.85;78.33;102339.22;10455656;28;20465;-72
2023/01/11 19:25:25;;;;;;;21.02;2.25;;;;;;;-2.06;78.30;102308.50;10455915;28;20131;-74
2023/01/11 19:30:26;;;;;;;15.35;2.33;;;;;;;-1.95;78.17;102324.69;10455084;28;20060;-72
2023/01/11 19:35:26;;;;;;;12.18;1.73;;;;;;;-2.09;78.83;102290.34;10455192;28;20064;-73
2023/01/11 19:40:27;;;;;;;9.90;1.73;;;;;;;-1.79;78.53;102319.13;10453716;28;20048;-74
2023/01/11 19:45:28;;;;;;;11.60;1.80;;;;;;;-2.89;78.59;102130.16;10451361;28;20126;-74
2023/01/11 19:50:28;;;;;;;15.45;1.65;;;;;;;-1.88;78.51;102270.72;10449623;28;20431;-74
2023/01/11 19:55:29;;;;;;;17.70;2.28;;;;;;;-1.92;79.05;102282.09;10448073;28;20036;-74
2023/01/11 20:00:31;;;;;;;14.13;2.22;;;;;;;-1.80;78.34;102276.56;10450212;28;20049;-74
2023/01/11 20:05:32;;;;;;;16.35;2.53;;;;;;;-1.67;78.76;102287.53;10453258;28;20052;-74
2023/01/11 20:10:33;;;;;;;12.65;1.55;;;;;;;-1.73;78.90;102264.25;10449403;28;20061;-73
2023/01/11 20:15:37;;;;;;;10.63;1.77;;;;;;;-1.72;78.76;102286.78;10452000;28;20063;-72
2023/01/11 20:20:38;;;;;;;7.77;1.80;;;;;;;-1.57;78.73;102288.13;10453602;28;20076;-72
2023/01/11 20:25:38;;;;;;;8.30;1.58;;;;;;;-1.58;78.68;102271.63;10453752;28;20314;-72
2023/01/11 20:30:40;;;;;;;13.90;1.75;;;;;;;-2.08;78.99;102173.13;10453510;28;20045;-72
2023/01/11 20:35:41;;;;;;;6.07;1.70;;;;;;;-1.82;78.88;102210.63;10452285;28;20557;-72
2023/01/11 20:40:42;;;;;;;10.05;1.30;;;;;;;-1.52;78.96;102240.19;10453564;28;20041;-73
2023/01/11 20:45:42;;;;;;;11.82;1.80;;;;;;;-1.42;79.28;102251.19;10453687;28;20127;-73
2023/01/11 20:50:43;;;;;;;13.65;2.03;;;;;;;-1.59;79.04;102215.16;10453063;28;20048;-73
2023/01/11 20:55:44;;;;;;;13.05;1.90;;;;;;;-1.62;78.83;102202.22;10456773;28;20047;-72
2023/01/11 21:00:45;;;;;;;6.65;2.17;;;;;;;-1.54;78.60;102218.50;10461318;28;20155;-73
2023/01/11 21:05:46;;;;;;;10.02;1.58;;;;;;;-1.34;79.01;102244.00;10461806;28;20044;-73
2023/01/11 21:10:47;;;;;;;8.02;1.40;;;;;;;-1.38;79.55;102225.00;10460658;28;20071;-73
2023/01/11 21:15:48;;;;;;;8.98;1.83;;;;;;;-1.31;79.50;102235.25;10459770;28;20047;-72
2023/01/11 21:20:49;;;;;;;12.43;2.10;;;;;;;-1.26;79.95;102234.19;10460021;28;20045;-72
2023/01/11 21:25:49;;;;;;;7.65;1.67;;;;;;;-1.79;80.36;102126.31;10459858;28;20037;-73
2023/01/11 21:30:50;;;;;;;10.95;1.60;;;;;;;-1.40;80.38;102182.47;10460390;28;20045;-75
2023/01/11 21:35:51;;;;;;;16.48;2.58;;;;;;;-1.43;80.35;102185.16;10459441;28;20385;-74
2023/01/11 21:40:51;;;;;;;8.57;1.27;;;;;;;-1.85;79.86;102104.75;10459142;28;20063;-74
2023/01/11 21:45:54;;;;;;;14.85;1.77;;;;;;;-1.43;80.24;102179.94;10459042;28;20048;-73
2023/01/11 21:50:55;;;;;;;21.45;1.70;;;;;;;-1.15;80.08;102220.84;10458841;28;20048;-73
2023/01/11 21:56:01;;;;;;;14.65;1.92;;;;;;;-1.28;80.12;102201.25;10458245;28;20404;-75
2023/01/11 22:01:12;;;;;;;9.98;1.98;;;;;;;-1.13;80.50;102203.41;10457682;28;20045;-73
2023/01/11 22:06:16;;;;;;;13.57;2.17;;;;;;;-1.20;79.95;102194.03;10459084;28;20036;-74
2023/01/11 22:11:17;;;;;;;7.13;1.48;;;;;;;-1.27;80.19;102184.69;10458040;28;20064;-73
2023/01/11 22:16:18;;;;;;;9.98;2.00;;;;;;;-1.42;79.70;102155.59;10458149;28;20410;-73
2023/01/11 22:21:19;;;;;;;8.27;2.00;;;;;;;-1.19;80.57;102188.78;10458103;28;20037;-72
2023/01/11 22:26:20;;;;;;;8.55;1.73;;;;;;;-1.33;80.54;102164.03;10458083;28;20056;-72
2023/01/11 22:31:21;;;;;;;8.23;1.88;;;;;;;-1.13;81.29;102198.19;10457188;28;20526;-73
2023/01/11 22:36:23;;;;;;;12.43;1.63;;;;;;;-1.21;81.03;102181.91;10457006;28;20069;-74
2023/01/11 22:41:24;;;;;;;13.38;1.45;;;;;;;-1.59;80.85;102110.09;10457952;28;20137;-73
2023/01/11 22:46:26;;;;;;;11.63;2.00;;;;;;;-1.55;81.23;102119.53;10456971;28;20538;-72
2023/01/11 22:51:27;;;;;;;9.40;1.67;;;;;;;-1.49;81.38;102129.78;10456308;28;20087;-73
2023/01/11 22:56:28;;;;;;;7.88;2.10;;;;;;;-1.22;82.16;102177.59;10457424;28;20087;-73
2023/01/11 23:01:33;;;;;;;6.82;1.42;;;;;;;-1.21;81.55;102181.91;10455838;28;20052;-73
2023/01/11 23:06:39;;;;;;;9.48;1.90;;;;;;;-1.22;81.75;102180.22;10457092;28;20049;-74
2023/01/11 23:17:07;;;;;;;7.32;1.70;;;;;;;-1.20;82.32;102175.78;10456213;28;20053;-74
2023/01/11 23:22:09;;;;;;;5.78;1.85;;;;;;;-1.35;81.83;102147.56;10456100;28;20043;-73
2023/01/11 23:27:09;;;;;;;9.90;2.00;;;;;;;-1.72;81.64;102081.78;10455483;28;20048;-74
2023/01/11 23:32:10;;;;;;;11.02;1.80;;;;;;;-1.28;82.17;102146.50;10453631;28;20045;-73
2023/01/11 23:37:11;;;;;;;10.95;2.00;;;;;;;-1.35;82.31;102122.34;10454776;28;20067;-73
2023/01/11 23:42:26;;;;;;;7.07;2.10;;;;;;;-1.54;82.65;102093.41;10454995;28;20036;-73
2023/01/11 23:47:30;;;;;;;8.05;1.80;;;;;;;-1.83;82.04;102032.59;10452985;28;20040;-73
2023/01/11 23:52:31;;;;;;;9.13;1.88;;;;;;;-1.52;82.37;102083.78;10454979;28;20051;-73
2023/01/11 23:57:32;;;;;;;12.73;1.67;;;;;;;-1.15;81.98;102140.84;10454106;28;20135;-73
